createdAt,value
2022-12-18T00:02:13.404Z,60.6
2022-12-18T00:05:15.320Z,63.7
2022-12-18T00:08:17.322Z,51
2022-12-18T00:11:19.273Z,43
2022-12-18T00:14:21.245Z,40.5
2022-12-18T00:17:23.173Z,49.2
2022-12-18T00:20:25.164Z,40.8
2022-12-18T00:23:27.087Z,48.7
2022-12-18T00:26:29.041Z,41.8
2022-12-18T00:29:31.001Z,54.7
2022-12-18T00:32:32.958Z,40.4
2022-12-18T00:35:34.915Z,47.5
2022-12-18T00:38:36.871Z,48.2
2022-12-18T00:41:38.831Z,49.4
2022-12-18T00:44:40.879Z,43.9
2022-12-18T00:47:42.786Z,41.5
2022-12-18T00:50:44.750Z,43.6
2022-12-18T00:53:46.716Z,49.6
2022-12-18T00:56:49.791Z,42.2
2022-12-18T00:59:50.671Z,39.3
2022-12-18T01:02:52.661Z,46
2022-12-18T01:05:54.548Z,45.1
2022-12-18T01:08:56.512Z,39.6
2022-12-18T01:11:58.500Z,49.5
2022-12-18T01:15:00.465Z,38.1
2022-12-18T01:18:02.408Z,44.2
2022-12-18T01:21:04.407Z,40.4
2022-12-18T01:24:06.338Z,38.2
2022-12-18T01:27:08.321Z,43.3
2022-12-18T01:30:10.316Z,46.1
2022-12-18T01:33:12.254Z,46.7
2022-12-18T01:36:14.264Z,45.2
2022-12-18T01:39:16.162Z,43.1
2022-12-18T01:42:18.156Z,44.9
2022-12-18T01:45:20.097Z,44.5
2022-12-18T01:48:22.096Z,43.5
2022-12-18T01:51:24.062Z,46.7
2022-12-18T01:54:26.003Z,42.8
2022-12-18T01:57:27.963Z,52.2
2022-12-18T02:00:29.912Z,36.7
2022-12-18T02:03:31.874Z,38.8
2022-12-18T02:06:33.893Z,48.7
2022-12-18T02:09:35.825Z,43.5
2022-12-18T02:12:37.778Z,43.9
2022-12-18T02:15:39.733Z,53.6
2022-12-18T02:18:41.745Z,50.1
2022-12-18T02:21:43.689Z,53.1
2022-12-18T02:24:45.609Z,49.8
2022-12-18T02:27:47.572Z,43.5
2022-12-18T02:30:49.663Z,53.4
2022-12-18T02:33:51.519Z,47.9
2022-12-18T02:36:53.487Z,39.5
2022-12-18T02:39:55.435Z,54.5
2022-12-18T02:42:57.439Z,49.9
2022-12-18T02:45:59.409Z,62.1
2022-12-18T02:49:01.317Z,58.2
2022-12-18T02:52:03.274Z,56.3
2022-12-18T02:55:05.262Z,51.1
2022-12-18T02:58:07.228Z,51.6
2022-12-18T03:01:09.313Z,43.6
2022-12-18T03:04:11.277Z,46.9
2022-12-18T03:07:13.171Z,53.3
2022-12-18T03:10:15.092Z,55.9
2022-12-18T03:13:17.044Z,56.8
2022-12-18T03:16:19.043Z,49.8
2022-12-18T03:19:20.986Z,43.7
2022-12-18T03:22:22.960Z,55.8
2022-12-18T03:25:24.879Z,55.7
2022-12-18T03:28:26.848Z,56.8
2022-12-18T03:31:28.876Z,50.2
2022-12-18T03:34:30.766Z,51.4
2022-12-18T03:37:32.724Z,54.7
2022-12-18T03:40:34.724Z,43.5
2022-12-18T03:43:36.946Z,51.8
2022-12-18T03:46:38.602Z,48.5
2022-12-18T03:49:40.657Z,44
2022-12-18T03:52:42.534Z,43
2022-12-18T03:55:44.529Z,50
2022-12-18T03:58:46.504Z,40.1
2022-12-18T04:01:48.542Z,41.9
2022-12-18T04:04:50.399Z,48.4
2022-12-18T04:07:52.355Z,42.1
2022-12-18T04:10:54.341Z,43.3
2022-12-18T04:13:56.294Z,45
2022-12-18T04:16:58.259Z,50.9
2022-12-18T04:20:00.252Z,34.3
2022-12-18T04:23:02.212Z,42.6
2022-12-18T04:26:04.171Z,42.1
2022-12-18T04:29:06.125Z,46
2022-12-18T04:32:08.097Z,44.3
2022-12-18T04:35:10.056Z,45.5
2022-12-18T04:38:12.017Z,40.7
2022-12-18T04:41:14.030Z,48.1
2022-12-18T04:44:15.933Z,41.8
2022-12-18T04:47:17.944Z,40.8
2022-12-18T04:50:19.878Z,46.9
2022-12-18T04:53:22.011Z,46.1
2022-12-18T04:56:23.781Z,46.6
2022-12-18T04:59:25.748Z,41
2022-12-18T05:02:27.872Z,36.2
2022-12-18T05:05:29.683Z,47.5
2022-12-18T05:08:31.759Z,44.1
2022-12-18T05:11:33.626Z,33.2
2022-12-18T05:14:35.578Z,42
2022-12-18T05:17:37.540Z,44.4
2022-12-18T05:20:39.495Z,42.7
2022-12-18T05:23:41.804Z,43.2
2022-12-18T05:26:43.441Z,44.3
2022-12-18T05:29:45.395Z,47.3
2022-12-18T05:32:47.377Z,47.7
2022-12-18T05:35:49.318Z,38.5
2022-12-18T05:38:51.322Z,43.1
2022-12-18T05:41:53.262Z,47.1
2022-12-18T05:44:55.249Z,43
2022-12-18T05:47:57.197Z,39.9
2022-12-18T05:50:59.152Z,42
2022-12-18T05:54:01.117Z,39.9
2022-12-18T05:57:03.098Z,30.5
2022-12-18T06:00:05.041Z,43.6
2022-12-18T06:03:07.084Z,40
2022-12-18T06:06:08.970Z,40
2022-12-18T06:09:10.943Z,48.8
2022-12-18T06:12:12.927Z,45.1
2022-12-18T06:15:14.878Z,34
2022-12-18T06:18:16.855Z,41.5
2022-12-18T06:21:18.834Z,39.3
2022-12-18T06:24:20.795Z,43
2022-12-18T06:27:22.728Z,40.6
2022-12-18T06:30:24.704Z,43.5
2022-12-18T06:33:26.673Z,38.6
2022-12-18T06:36:28.581Z,33.5
2022-12-18T06:39:30.551Z,33.8
2022-12-18T06:42:32.502Z,41.7
2022-12-18T06:45:34.498Z,41.9
2022-12-18T06:48:36.494Z,41.8
2022-12-18T06:51:38.420Z,43.8
2022-12-18T06:54:40.380Z,43.8
2022-12-18T06:57:42.358Z,40.9
2022-12-18T07:00:44.378Z,41.6
2022-12-18T07:03:46.368Z,38.5
2022-12-18T07:06:48.254Z,39
2022-12-18T07:09:50.256Z,41.4
2022-12-18T07:12:52.189Z,37.2
2022-12-18T07:15:54.134Z,39.2
2022-12-18T07:18:56.103Z,36.5
2022-12-18T07:21:58.053Z,43.9
2022-12-18T07:25:00.007Z,38.6
2022-12-18T07:28:02.004Z,36.9
2022-12-18T07:31:03.944Z,37.5
2022-12-18T07:34:05.912Z,38.4
2022-12-18T07:37:07.924Z,43.5
2022-12-18T07:40:09.857Z,39.5
2022-12-18T07:43:11.835Z,40
2022-12-18T07:46:13.832Z,44
2022-12-18T07:49:15.787Z,43.8
2022-12-18T07:52:20.300Z,41.3
2022-12-18T07:55:19.666Z,40.5
2022-12-18T07:58:21.657Z,39.5
2022-12-18T08:01:23.710Z,37.6
2022-12-18T08:04:25.576Z,41.1
2022-12-18T08:07:27.538Z,40.1
2022-12-18T08:10:29.544Z,51.7
2022-12-18T08:13:31.458Z,35.6
2022-12-18T08:16:33.424Z,46.7
2022-12-18T08:19:35.348Z,39
2022-12-18T08:22:37.314Z,41.4
2022-12-18T08:25:39.324Z,38.7
2022-12-18T08:28:41.236Z,40.1
2022-12-18T08:31:43.291Z,35.5
2022-12-18T08:34:45.187Z,37.6
2022-12-18T08:37:47.143Z,38
2022-12-18T08:40:49.220Z,43.1
2022-12-18T08:43:51.184Z,45.7
2022-12-18T08:46:53.156Z,44
2022-12-18T08:49:55.114Z,36.5
2022-12-18T08:52:57.070Z,37.2
2022-12-18T08:55:59.099Z,42.2
2022-12-18T08:59:01.068Z,39
2022-12-18T09:02:03.328Z,43.2
2022-12-18T09:05:05.002Z,48.6
2022-12-18T09:08:06.959Z,41.6
2022-12-18T09:11:08.915Z,45.7
2022-12-18T09:14:10.886Z,34.8
2022-12-18T09:17:12.926Z,38.1
2022-12-18T09:20:14.812Z,43.3
2022-12-18T09:23:16.849Z,44.6
2022-12-18T09:26:18.747Z,54
2022-12-18T09:29:20.682Z,51.2
2022-12-18T09:32:22.755Z,45.5
2022-12-18T09:35:24.596Z,52.5
2022-12-18T09:38:26.581Z,48.2
2022-12-18T09:41:28.537Z,48.4
2022-12-18T09:44:30.580Z,47.6
2022-12-18T09:47:32.491Z,48.5
2022-12-18T09:50:34.466Z,55.4
2022-12-18T09:53:36.402Z,48.2
2022-12-18T09:56:38.367Z,45.4
2022-12-18T09:59:40.490Z,41.1
2022-12-18T10:02:42.457Z,50
2022-12-18T10:05:44.264Z,53.8
2022-12-18T10:08:46.240Z,46.7
2022-12-18T10:11:48.208Z,57.4
2022-12-18T10:14:50.193Z,54.6
2022-12-18T10:17:52.325Z,48.1
2022-12-18T10:20:54.087Z,50.7
2022-12-18T10:23:56.056Z,51.4
2022-12-18T10:26:58.000Z,54.7
2022-12-18T10:29:59.964Z,50
2022-12-18T10:33:01.919Z,46.6
2022-12-18T10:36:03.883Z,49.5
2022-12-18T10:39:05.828Z,48.4
2022-12-18T10:42:07.841Z,57.9
2022-12-18T10:45:09.839Z,51.2
2022-12-18T10:48:11.759Z,52.1
2022-12-18T10:51:13.981Z,57.3
2022-12-18T10:54:15.715Z,59.3
2022-12-18T10:57:17.640Z,54.2
2022-12-18T11:00:19.622Z,49.6
2022-12-18T11:03:21.664Z,58.6
2022-12-18T11:06:23.532Z,58.1
2022-12-18T11:09:25.490Z,51.9
2022-12-18T11:12:27.466Z,50.9
2022-12-18T11:15:29.416Z,59.6
2022-12-18T11:18:31.397Z,56
2022-12-18T11:21:33.370Z,50.2
2022-12-18T11:24:35.334Z,51.5
2022-12-18T11:27:37.289Z,55.2
2022-12-18T11:30:39.258Z,57.9
2022-12-18T11:33:49.478Z,57.5
2022-12-18T11:36:43.184Z,54.5
2022-12-18T11:39:45.127Z,54.4
2022-12-18T11:42:47.099Z,60.2
2022-12-18T11:45:49.045Z,58.2
2022-12-18T11:48:51.008Z,58.4
2022-12-18T11:51:52.999Z,59.2
2022-12-18T11:54:54.932Z,55.8
2022-12-18T11:57:56.899Z,59.2
2022-12-18T12:00:58.844Z,64.8
2022-12-18T12:04:00.879Z,64.4
2022-12-18T12:07:03.391Z,58.2
2022-12-18T12:10:04.728Z,63.1
2022-12-18T12:13:06.683Z,56.2
2022-12-18T12:16:08.667Z,48.7
2022-12-18T12:19:10.648Z,55.1
2022-12-18T12:22:12.555Z,53.9
2022-12-18T12:25:14.510Z,53.9
2022-12-18T12:28:16.553Z,60.3
2022-12-18T12:31:18.485Z,60.1
2022-12-18T12:34:20.433Z,62.5
2022-12-18T12:37:22.375Z,53.5
2022-12-18T12:40:49.013Z,48.9
2022-12-18T12:43:26.283Z,55.2
2022-12-18T12:46:28.231Z,62.9
2022-12-18T12:49:30.215Z,50.3
2022-12-18T12:52:32.148Z,56.6
2022-12-18T12:55:34.116Z,59.9
2022-12-18T12:58:36.066Z,57.1
2022-12-18T13:01:38.177Z,54.7
2022-12-18T13:04:39.998Z,51.9
2022-12-18T13:07:41.949Z,64
2022-12-18T13:10:43.903Z,58.6
2022-12-18T13:13:46.084Z,57.8
2022-12-18T13:16:47.807Z,63
2022-12-18T13:19:49.943Z,56.3
2022-12-18T13:22:51.776Z,58.7
2022-12-18T13:25:53.717Z,49.4
2022-12-18T13:28:55.660Z,60.5
2022-12-18T13:31:57.620Z,50.9
2022-12-18T13:34:59.565Z,59
2022-12-18T13:38:01.572Z,54.3
2022-12-18T13:41:03.510Z,59.5
2022-12-18T13:44:05.466Z,50.5
2022-12-18T13:47:07.453Z,57.4
2022-12-18T13:50:09.440Z,54
2022-12-18T13:53:11.365Z,55.7
2022-12-18T13:56:13.333Z,53.4
2022-12-18T13:59:15.305Z,53.2
2022-12-18T14:02:17.556Z,56.1
2022-12-18T14:05:19.220Z,57.4
2022-12-18T14:08:21.234Z,62.9
2022-12-18T14:11:23.135Z,57.6
2022-12-18T14:14:28.130Z,58.9
2022-12-18T14:17:27.074Z,56.3
2022-12-18T14:20:29.045Z,56.5
2022-12-18T14:23:31.016Z,45.4
2022-12-18T14:26:32.938Z,52
2022-12-18T14:29:34.895Z,54.9
2022-12-18T14:32:36.868Z,59.5
2022-12-18T14:35:38.825Z,46
2022-12-18T14:38:40.783Z,56.7
2022-12-18T14:41:42.749Z,49.9
2022-12-18T14:45:12.736Z,52.7
2022-12-18T14:47:46.714Z,57.6
2022-12-18T14:50:48.621Z,50.9
2022-12-18T14:53:53.879Z,56.6
2022-12-18T14:56:52.515Z,58.6
2022-12-18T14:59:54.486Z,48.2
2022-12-18T15:02:56.554Z,48.5
2022-12-18T15:05:58.394Z,45.8
2022-12-18T15:09:00.361Z,50.4
2022-12-18T15:12:02.321Z,58.8
2022-12-18T15:15:04.286Z,53.5
2022-12-18T15:18:06.248Z,53.2
2022-12-18T15:21:08.222Z,59.3
2022-12-18T15:24:10.174Z,57.9
2022-12-18T15:27:12.130Z,55.3
2022-12-18T15:30:14.113Z,53.5
2022-12-18T15:33:16.063Z,50.8
2022-12-18T15:36:18.059Z,50.9
2022-12-18T15:39:19.993Z,53.6
2022-12-18T15:42:22.108Z,45.3
2022-12-18T15:45:23.965Z,56.9
2022-12-18T15:48:25.858Z,59.1
2022-12-18T15:51:27.798Z,64
2022-12-18T15:54:29.812Z,53.3
2022-12-18T15:57:31.757Z,48.8
2022-12-18T16:00:33.674Z,47.8
2022-12-18T16:03:35.682Z,58
2022-12-18T16:06:57.986Z,59.2
2022-12-18T16:09:39.578Z,47.8
2022-12-18T16:12:41.523Z,51.4
2022-12-18T16:15:43.529Z,55.8
2022-12-18T16:18:45.486Z,55.2
2022-12-18T16:21:47.404Z,68.2
2022-12-18T16:24:49.361Z,55
2022-12-18T16:27:51.321Z,59.7
2022-12-18T16:30:53.348Z,63.7
2022-12-18T16:33:55.274Z,57.9
2022-12-18T16:37:01.661Z,60.3
2022-12-18T16:39:59.211Z,56.7
2022-12-18T16:43:01.138Z,47.1
2022-12-18T16:46:03.098Z,49.6
2022-12-18T16:49:05.025Z,68.9
2022-12-18T16:52:07.034Z,69.6
2022-12-18T16:55:08.982Z,65.5
2022-12-18T16:58:10.926Z,57.3
2022-12-18T17:01:12.944Z,61.6
2022-12-18T17:04:14.838Z,56.1
2022-12-18T17:07:16.796Z,49.8
2022-12-18T17:10:18.762Z,52
2022-12-18T17:13:25.520Z,48.8
2022-12-18T17:16:22.735Z,53.4
2022-12-18T17:19:24.713Z,45.8
2022-12-18T17:22:26.681Z,55.7
2022-12-18T17:25:28.543Z,59.8
2022-12-18T17:28:30.504Z,45.3
2022-12-18T17:31:32.610Z,45.1
2022-12-18T17:34:34.417Z,46.9
2022-12-18T17:37:36.406Z,44.7
2022-12-18T17:40:41.866Z,57
2022-12-18T17:43:40.587Z,53.5
2022-12-18T17:46:42.324Z,46.4
2022-12-18T17:49:44.257Z,44.6
2022-12-18T17:52:46.184Z,41.9
2022-12-18T17:55:48.165Z,47.6
2022-12-18T17:58:50.112Z,45.3
2022-12-18T18:01:52.394Z,45.7
2022-12-18T18:04:54.098Z,57
2022-12-18T18:07:56.034Z,61.4
2022-12-18T18:10:58.005Z,50.9
2022-12-18T18:13:59.947Z,47.2
2022-12-18T18:17:04.585Z,58
2022-12-18T18:20:03.883Z,54.4
2022-12-18T18:23:05.827Z,52.6
2022-12-18T18:26:08.013Z,40.9
2022-12-18T18:29:09.743Z,44.7
2022-12-18T18:32:11.711Z,42.9
2022-12-18T18:35:30.853Z,52.5
2022-12-18T18:38:15.632Z,46.2
2022-12-18T18:41:17.584Z,48.1
2022-12-18T18:44:19.548Z,49.3
2022-12-18T18:47:21.547Z,54.7
2022-12-18T18:50:23.586Z,44.5
2022-12-18T18:53:25.484Z,38.9
2022-12-18T18:59:31.846Z,42.3
2022-12-18T19:02:31.440Z,40.4
2022-12-18T19:05:33.290Z,46.3
2022-12-18T19:08:35.260Z,53.3
2022-12-18T19:11:37.233Z,39.4
2022-12-18T19:14:39.161Z,44.1
2022-12-18T19:17:41.109Z,42.8
2022-12-18T19:20:43.096Z,39.4
2022-12-18T19:23:45.055Z,37
2022-12-18T19:26:46.991Z,44.2
2022-12-18T19:29:49.029Z,41.3
2022-12-18T19:32:50.984Z,47.5
2022-12-18T19:35:52.940Z,45.9
2022-12-18T19:38:54.926Z,51
2022-12-18T19:41:56.872Z,49.8
2022-12-18T19:44:58.849Z,37
2022-12-18T19:48:04.198Z,46.8
2022-12-18T19:51:02.805Z,40.4
2022-12-18T19:54:04.744Z,51.4
2022-12-18T19:57:06.683Z,45.7
2022-12-18T20:00:09.476Z,53.9
2022-12-18T20:03:21.437Z,48.4
2022-12-18T20:06:12.615Z,46.1
2022-12-18T20:09:14.626Z,47.6
2022-12-18T20:12:16.511Z,48.2
2022-12-18T20:15:18.504Z,50.7
2022-12-18T20:18:20.436Z,52.2
2022-12-18T20:21:22.444Z,49.5
2022-12-18T20:24:24.392Z,42.6
2022-12-18T20:27:26.384Z,49.7
2022-12-18T20:30:28.348Z,48.7
2022-12-18T20:33:30.305Z,50.3
2022-12-18T20:36:32.986Z,50.8
2022-12-18T20:39:34.281Z,45.2
2022-12-18T20:42:36.236Z,47.8
2022-12-18T20:45:38.240Z,42.4
2022-12-18T20:48:40.147Z,49.8
2022-12-18T20:51:42.092Z,44.8
2022-12-18T20:54:44.118Z,40.5
2022-12-18T20:57:46.039Z,61.3
2022-12-18T21:00:48.045Z,52.2
2022-12-18T21:03:50.081Z,54.5
2022-12-18T21:06:54.422Z,52.4
2022-12-18T21:09:53.874Z,48.8
2022-12-18T21:13:00.103Z,49.7
2022-12-18T21:15:57.859Z,60.9
2022-12-18T21:18:59.778Z,52.9
2022-12-18T21:22:01.736Z,49.1
2022-12-18T21:25:03.707Z,47.8
2022-12-18T21:28:05.671Z,59.6
2022-12-18T21:31:07.689Z,56.3
2022-12-18T21:34:09.592Z,60.3
2022-12-18T21:37:11.556Z,55.9
2022-12-18T21:40:13.528Z,58.2
2022-12-18T21:43:17.731Z,50.6
2022-12-18T21:46:17.530Z,52.3
2022-12-18T21:49:19.484Z,49.8
2022-12-18T21:52:21.555Z,58
2022-12-18T21:55:23.371Z,51.3
2022-12-18T21:58:25.343Z,50.3
2022-12-18T22:01:30.615Z,47.7
2022-12-18T22:04:29.304Z,56.5
2022-12-18T22:07:31.211Z,56.8
2022-12-18T22:10:33.245Z,56.9
2022-12-18T22:13:35.204Z,52.8
2022-12-18T22:16:37.152Z,53
2022-12-18T22:19:42.783Z,48.3
2022-12-18T22:22:41.111Z,49.6
2022-12-18T22:25:43.040Z,62.1
2022-12-18T22:28:45.005Z,50.7
2022-12-18T22:31:47.013Z,56
2022-12-18T22:34:48.943Z,48.2
2022-12-18T22:37:50.891Z,48.9
2022-12-18T22:40:52.844Z,52.2
2022-12-18T22:43:54.809Z,50.5
2022-12-18T22:47:05.393Z,43.6
2022-12-18T22:49:58.803Z,46.8
2022-12-18T22:53:00.733Z,50.3
2022-12-18T22:56:02.698Z,50.2
2022-12-18T22:59:04.631Z,54.8
2022-12-18T23:02:06.636Z,56
2022-12-18T23:05:08.587Z,49.5
2022-12-18T23:08:10.536Z,55.6
2022-12-18T23:11:12.462Z,50.7
2022-12-18T23:14:14.446Z,53.5
2022-12-18T23:17:16.379Z,51.3
2022-12-18T23:20:18.343Z,46.2
2022-12-18T23:23:20.296Z,56.6
2022-12-18T23:26:22.768Z,49.2
2022-12-18T23:29:24.246Z,44.5
2022-12-18T23:32:26.191Z,45.6
2022-12-18T23:35:28.223Z,48.2
2022-12-18T23:38:30.165Z,48.5
2022-12-18T23:41:32.136Z,48.9
2022-12-18T23:44:34.091Z,50.7
2022-12-18T23:47:36.086Z,45.8
2022-12-18T23:50:37.979Z,46.5
2022-12-18T23:53:39.985Z,56.7
2022-12-18T23:56:41.913Z,48.9
2022-12-18T23:59:43.897Z,49.8
